Time,TemperatureF,DewpointF,PressureIn,WindDirection,WindDirectionDegrees,WindSpeedMPH,WindSpeedGustMPH,Humidity,HourlyPrecipIn,Conditions,Clouds,dailyrainin,SoftwareType,DateUTC
2013-02-04 00:02:00,29.0,6.0,-100.00,WSW,239,18.0,35.0,36,0.00,,,-99.99,,2013-02-04 07:02:00,
2013-02-04 00:11:00,29.0,5.0,-100.00,SW,233,22.0,40.0,35,0.00,,,-99.99,,2013-02-04 07:11:00,
2013-02-04 00:21:00,29.0,5.0,-100.00,SW,232,23.0,38.0,35,0.00,,,-99.99,,2013-02-04 07:21:00,
2013-02-04 00:32:00,29.0,5.0,-100.00,SW,230,22.0,35.0,35,0.00,,,-99.99,,2013-02-04 07:32:00,
2013-02-04 00:41:00,29.0,5.0,-100.00,SW,224,22.0,35.0,35,0.00,,,-99.99,,2013-02-04 07:41:00,
2013-02-04 00:51:00,29.0,5.0,-100.00,SW,226,21.0,31.0,35,0.00,,,-99.99,,2013-02-04 07:51:00,
2013-02-04 01:01:00,30.0,5.0,-100.00,SW,229,19.0,32.0,34,0.00,,,-99.99,,2013-02-04 08:01:00,
2013-02-04 01:11:00,29.0,5.0,-100.00,SW,230,20.0,32.0,35,0.00,,,-99.99,,2013-02-04 08:11:00,
2013-02-04 01:21:00,29.0,5.0,-100.00,WSW,240,14.0,24.0,34,0.00,,,-99.99,,2013-02-04 08:21:00,
2013-02-04 01:31:00,29.0,4.0,-100.00,WSW,241,12.0,19.0,34,0.00,,,-99.99,,2013-02-04 08:31:00,
2013-02-04 01:42:00,30.0,4.0,-100.00,WSW,241,13.0,26.0,33,0.00,,,-99.99,,2013-02-04 08:42:00,
2013-02-04 01:52:00,30.0,4.0,-100.00,WSW,239,16.0,24.0,33,0.00,,,-99.99,,2013-02-04 08:52:00,
2013-02-04 02:02:00,30.0,4.0,-100.00,WSW,243,16.0,25.0,33,0.00,,,-99.99,,2013-02-04 09:02:00,
2013-02-04 02:11:00,29.0,4.0,-100.00,WSW,247,14.0,27.0,33,0.00,,,-99.99,,2013-02-04 09:11:00,
2013-02-04 02:21:00,29.0,4.0,-100.00,WSW,253,13.0,21.0,34,0.00,,,-99.99,,2013-02-04 09:21:00,
2013-02-04 02:31:00,29.0,4.0,-100.00,WSW,251,12.0,19.0,34,0.00,,,-99.99,,2013-02-04 09:31:00,
2013-02-04 02:41:00,29.0,4.0,-100.00,WSW,247,14.0,24.0,33,0.00,,,-99.99,,2013-02-04 09:41:00,
2013-02-04 02:51:00,30.0,3.0,-100.00,WSW,248,16.0,25.0,32,0.00,,,-99.99,,2013-02-04 09:51:00,
2013-02-04 03:01:00,29.0,3.0,-100.00,WSW,243,11.0,19.0,32,0.00,,,-99.99,,2013-02-04 10:01:00,
2013-02-04 03:11:00,29.0,3.0,-100.00,WSW,250,10.0,17.0,32,0.00,,,-99.99,,2013-02-04 10:11:00,
2013-02-04 03:21:00,28.0,3.0,-100.00,West,264,12.0,19.0,33,0.00,,,-99.99,,2013-02-04 10:21:00,
2013-02-04 03:32:00,29.0,3.0,-100.00,WSW,246,7.0,18.0,32,0.00,,,-99.99,,2013-02-04 10:32:00,
2013-02-04 03:41:00,29.0,2.0,-100.00,West,260,6.0,18.0,32,0.00,,,-99.99,,2013-02-04 10:41:00,
2013-02-04 03:51:00,29.0,2.0,-100.00,West,263,9.0,17.0,30,0.00,,,-99.99,,2013-02-04 10:51:00,
2013-02-04 04:02:00,30.0,2.0,-100.00,WSW,258,12.0,23.0,30,0.00,,,-99.99,,2013-02-04 11:02:00,
2013-02-04 04:11:00,30.0,2.0,-100.00,West,271,11.0,17.0,30,0.00,,,-99.99,,2013-02-04 11:11:00,
2013-02-04 04:22:00,29.0,3.0,-100.00,WNW,288,6.0,16.0,32,0.00,,,-99.99,,2013-02-04 11:22:00,
2013-02-04 04:32:00,29.0,3.0,-100.00,WSW,258,10.0,22.0,33,0.00,,,-99.99,,2013-02-04 11:32:00,
2013-02-04 04:42:00,29.0,3.0,-100.00,WSW,244,13.0,23.0,32,0.00,,,-99.99,,2013-02-04 11:42:00,
2013-02-04 04:52:00,29.0,3.0,-100.00,WSW,246,11.0,20.0,33,0.00,,,-99.99,,2013-02-04 11:52:00,
2013-02-04 05:02:00,29.0,3.0,-100.00,WSW,248,10.0,19.0,32,0.00,,,-99.99,,2013-02-04 12:02:00,
2013-02-04 05:12:00,29.0,3.0,-100.00,WSW,247,11.0,19.0,32,0.00,,,-99.99,,2013-02-04 12:12:00,
2013-02-04 05:21:00,29.0,3.0,-100.00,West,260,16.0,27.0,32,0.00,,,-99.99,,2013-02-04 12:21:00,
2013-02-04 05:32:00,29.0,3.0,-100.00,WSW,258,16.0,24.0,32,0.00,,,-99.99,,2013-02-04 12:32:00,
2013-02-04 05:42:00,29.0,3.0,-100.00,WSW,254,18.0,32.0,33,0.00,,,-99.99,,2013-02-04 12:42:00,
2013-02-04 05:52:00,29.0,3.0,-100.00,WSW,254,18.0,27.0,33,0.00,,,-99.99,,2013-02-04 12:52:00,
2013-02-04 06:02:00,28.0,4.0,-100.00,WSW,248,14.0,25.0,34,0.00,,,-99.99,,2013-02-04 13:02:00,
2013-02-04 06:12:00,26.0,4.0,-100.00,South,188,8.0,21.0,39,0.00,,,-99.99,,2013-02-04 13:12:00,
2013-02-04 06:21:00,29.0,3.0,-100.00,South,182,9.0,18.0,33,0.00,,,-99.99,,2013-02-04 13:21:00,
2013-02-04 06:33:00,30.0,3.0,-100.00,South,178,7.0,18.0,31,0.00,,,-99.99,,2013-02-04 13:33:00,
2013-02-04 06:42:00,31.0,3.0,-100.00,WSW,244,11.0,24.0,30,0.00,,,-99.99,,2013-02-04 13:42:00,
2013-02-04 06:51:00,30.0,3.0,-100.00,WSW,243,14.0,29.0,31,0.00,,,-99.99,,2013-02-04 13:51:00,
2013-02-04 07:03:00,30.0,4.0,-100.00,WSW,237,18.0,31.0,32,0.00,,,-99.99,,2013-02-04 14:03:00,
2013-02-04 07:11:00,29.0,4.0,-100.00,WSW,239,17.0,31.0,33,0.00,,,-99.99,,2013-02-04 14:11:00,
2013-02-04 07:22:00,29.0,4.0,-100.00,WSW,243,14.0,25.0,33,0.00,,,-99.99,,2013-02-04 14:22:00,
2013-02-04 07:32:00,30.0,3.0,-100.00,WSW,243,12.0,21.0,31,0.00,,,-99.99,,2013-02-04 14:32:00,
2013-02-04 07:42:00,30.0,3.0,-100.00,SW,236,16.0,30.0,31,0.00,,,-99.99,,2013-02-04 14:42:00,
2013-02-04 07:52:00,31.0,2.0,-100.00,SW,233,16.0,29.0,29,0.00,,,-99.99,,2013-02-04 14:52:00,
2013-02-04 08:03:00,31.0,3.0,-100.00,SW,227,21.0,34.0,29,0.00,,,-99.99,,2013-02-04 15:03:00,
2013-02-04 08:12:00,31.0,3.0,-100.00,SW,226,24.0,39.0,29,0.00,,,-99.99,,2013-02-04 15:12:00,
2013-02-04 08:23:00,31.0,4.0,-100.00,SW,226,24.0,34.0,31,0.00,,,-99.99,,2013-02-04 15:23:00,
2013-02-04 08:33:00,32.0,4.0,-100.00,SW,236,24.0,45.0,30,0.00,,,-99.99,,2013-02-04 15:33:00,
2013-02-04 08:43:00,32.0,4.0,-100.00,WSW,237,25.0,42.0,30,0.00,,,-99.99,,2013-02-04 15:43:00,
2013-02-04 08:52:00,32.0,4.0,-100.00,SW,236,20.0,42.0,30,0.00,,,-99.99,,2013-02-04 15:52:00,
2013-02-04 09:03:00,32.0,4.0,-100.00,WSW,244,17.0,30.0,30,0.00,,,-99.99,,2013-02-04 16:03:00,
2013-02-04 09:11:00,32.0,5.0,-100.00,WSW,241,16.0,30.0,31,0.00,,,-99.99,,2013-02-04 16:11:00,
2013-02-04 09:22:00,32.0,5.0,-100.00,WSW,243,18.0,33.0,31,0.00,,,-99.99,,2013-02-04 16:22:00,
2013-02-04 09:33:00,32.0,6.0,-100.00,WSW,244,19.0,32.0,32,0.00,,,-99.99,,2013-02-04 16:33:00,
2013-02-04 09:42:00,32.0,6.0,-100.00,WSW,239,21.0,32.0,32,0.00,,,-99.99,,2013-02-04 16:42:00,
2013-02-04 09:51:00,33.0,6.0,-100.00,WSW,237,21.0,34.0,32,0.00,,,-99.99,,2013-02-04 16:51:00,
2013-02-04 10:02:00,33.0,6.0,-100.00,WSW,243,22.0,38.0,30,0.00,,,-99.99,,2013-02-04 17:02:00,
2013-02-04 10:11:00,34.0,6.0,-100.00,WSW,244,19.0,35.0,30,0.00,,,-99.99,,2013-02-04 17:11:00,
2013-02-04 10:21:00,34.0,7.0,-100.00,WSW,248,21.0,34.0,32,0.00,,,-99.99,,2013-02-04 17:21:00,
2013-02-04 10:32:00,34.0,6.0,-100.00,WSW,247,22.0,42.0,30,0.00,,,-99.99,,2013-02-04 17:32:00,
2013-02-04 10:42:00,34.0,6.0,-100.00,WSW,250,26.0,42.0,31,0.00,,,-99.99,,2013-02-04 17:42:00,
2013-02-04 10:51:00,34.0,7.0,-100.00,WSW,257,26.0,40.0,31,0.00,,,-99.99,,2013-02-04 17:51:00,
2013-02-04 11:03:00,34.0,7.0,-100.00,West,261,24.0,36.0,32,0.00,,,-99.99,,2013-02-04 18:03:00,
2013-02-04 11:11:00,35.0,7.0,-100.00,WSW,258,20.0,30.0,31,0.00,,,-99.99,,2013-02-04 18:11:00,
2013-02-04 11:22:00,34.0,8.0,-100.00,WSW,256,17.0,32.0,33,0.00,,,-99.99,,2013-02-04 18:22:00,
2013-02-04 11:32:00,35.0,9.0,-100.00,WSW,248,13.0,23.0,33,0.00,,,-99.99,,2013-02-04 18:32:00,
2013-02-04 11:41:00,35.0,8.0,-100.00,WSW,241,12.0,21.0,32,0.00,,,-99.99,,2013-02-04 18:41:00,
2013-02-04 11:52:00,37.0,9.0,-100.00,SW,222,9.0,23.0,30,0.00,,,-99.99,,2013-02-04 18:52:00,
2013-02-04 12:02:00,37.0,9.0,-100.00,SW,222,10.0,23.0,31,0.00,,,-99.99,,2013-02-04 19:02:00,
2013-02-04 12:11:00,37.0,9.0,-100.00,SW,227,9.0,23.0,30,0.00,,,-99.99,,2013-02-04 19:11:00,
2013-02-04 12:22:00,36.0,8.0,-100.00,WSW,241,9.0,27.0,31,0.00,,,-99.99,,2013-02-04 19:22:00,
2013-02-04 12:32:00,36.0,8.0,-100.00,West,264,13.0,24.0,31,0.00,,,-99.99,,2013-02-04 19:32:00,
2013-02-04 12:41:00,36.0,8.0,-100.00,West,270,13.0,24.0,31,0.00,,,-99.99,,2013-02-04 19:41:00,
2013-02-04 12:51:00,34.0,9.0,-100.00,West,274,14.0,23.0,34,0.00,,,-99.99,,2013-02-04 19:51:00,
2013-02-04 13:02:00,34.0,9.0,-100.00,WNW,288,17.0,26.0,36,0.00,,,-99.99,,2013-02-04 20:02:00,
2013-02-04 13:12:00,34.0,9.0,-100.00,WNW,285,17.0,27.0,35,0.00,,,-99.99,,2013-02-04 20:12:00,
2013-02-04 13:21:00,33.0,8.0,-100.00,West,270,14.0,28.0,35,0.00,,,-99.99,,2013-02-04 20:21:00,
2013-02-04 13:32:00,35.0,9.0,-100.00,West,274,14.0,24.0,34,0.00,,,-99.99,,2013-02-04 20:32:00,
2013-02-04 13:42:00,36.0,10.0,-100.00,West,274,14.0,25.0,33,0.00,,,-99.99,,2013-02-04 20:42:00,
2013-02-04 13:52:00,36.0,10.0,-100.00,West,261,19.0,32.0,34,0.00,,,-99.99,,2013-02-04 20:52:00,
2013-02-04 14:02:00,35.0,9.0,-100.00,WSW,254,20.0,34.0,35,0.00,,,-99.99,,2013-02-04 21:02:00,
2013-02-04 14:11:00,34.0,9.0,-100.00,WSW,256,17.0,34.0,35,0.00,,,-99.99,,2013-02-04 21:11:00,
2013-02-04 14:22:00,36.0,9.0,-100.00,WSW,258,14.0,26.0,33,0.00,,,-99.99,,2013-02-04 21:22:00,
2013-02-04 14:32:00,35.0,10.0,-100.00,WSW,251,17.0,36.0,34,0.00,,,-99.99,,2013-02-04 21:32:00,
2013-02-04 14:42:00,36.0,10.0,-100.00,SW,234,11.0,23.0,34,0.00,,,-99.99,,2013-02-04 21:42:00,
2013-02-04 14:51:00,36.0,11.0,-100.00,WNW,289,9.0,18.0,35,0.00,,,-99.99,,2013-02-04 21:51:00,
2013-02-04 15:02:00,35.0,11.0,-100.00,WSW,251,12.0,30.0,35,0.00,,,-99.99,,2013-02-04 22:02:00,
2013-02-04 15:12:00,35.0,11.0,-100.00,West,260,11.0,19.0,36,0.00,,,-99.99,,2013-02-04 22:12:00,
2013-02-04 15:21:00,36.0,12.0,-100.00,SSW,210,6.0,13.0,37,0.00,,,-99.99,,2013-02-04 22:21:00,
2013-02-04 15:32:00,35.0,12.0,-100.00,SSW,203,11.0,24.0,39,0.00,,,-99.99,,2013-02-04 22:32:00,
2013-02-04 15:41:00,35.0,13.0,-100.00,WSW,253,11.0,20.0,41,0.00,,,-99.99,,2013-02-04 22:41:00,
2013-02-04 15:51:00,35.0,13.0,-100.00,WSW,246,6.0,15.0,39,0.00,,,-99.99,,2013-02-04 22:51:00,
2013-02-04 16:01:00,35.0,13.0,-100.00,West,277,6.0,17.0,41,0.00,,,-99.99,,2013-02-04 23:01:00,
2013-02-04 16:11:00,34.0,13.0,-100.00,SW,219,7.0,24.0,41,0.00,,,-99.99,,2013-02-04 23:11:00,
2013-02-04 16:21:00,34.0,14.0,-100.00,WSW,254,7.0,16.0,43,0.00,,,-99.99,,2013-02-04 23:21:00,
2013-02-04 16:32:00,33.0,15.0,-100.00,SW,215,12.0,39.0,46,0.00,,,-99.99,,2013-02-04 23:32:00,
2013-02-04 16:42:00,33.0,15.0,-100.00,SSW,193,17.0,42.0,47,0.00,,,-99.99,,2013-02-04 23:42:00,
2013-02-04 16:52:00,32.0,15.0,-100.00,SSW,202,14.0,26.0,48,0.00,,,-99.99,,2013-02-04 23:52:00,
2013-02-04 17:01:00,32.0,15.0,-100.00,SSW,203,12.0,26.0,49,0.00,,,-99.99,,2013-02-05 00:01:00,
2013-02-04 17:11:00,32.0,15.0,-100.00,SSW,209,12.0,26.0,50,0.00,,,-99.99,,2013-02-05 00:11:00,
2013-02-04 17:21:00,31.0,15.0,-100.00,SSW,212,15.0,41.0,51,0.00,,,-99.99,,2013-02-05 00:21:00,
2013-02-04 17:31:00,31.0,15.0,-100.00,SW,230,29.0,50.0,51,0.00,,,-99.99,,2013-02-05 00:31:00,
2013-02-04 17:42:00,31.0,15.0,-100.00,SW,233,29.0,46.0,52,0.00,,,-99.99,,2013-02-05 00:42:00,
2013-02-04 17:51:00,31.0,16.0,-100.00,SW,232,29.0,49.0,52,0.00,,,-99.99,,2013-02-05 00:51:00,
2013-02-04 18:01:00,31.0,16.0,-100.00,SW,233,30.0,50.0,53,0.00,,,-99.99,,2013-02-05 01:01:00,
2013-02-04 18:11:00,31.0,16.0,-100.00,SW,234,29.0,48.0,54,0.00,,,-99.99,,2013-02-05 01:11:00,
2013-02-04 18:22:00,31.0,16.0,-100.00,SW,233,30.0,48.0,53,0.00,,,-99.99,,2013-02-05 01:22:00,
2013-02-04 18:32:00,31.0,16.0,-100.00,WSW,237,27.0,50.0,53,0.00,,,-99.99,,2013-02-05 01:32:00,
2013-02-04 18:42:00,31.0,15.0,-100.00,SW,234,30.0,45.0,53,0.00,,,-99.99,,2013-02-05 01:42:00,
2013-02-04 18:51:00,31.0,15.0,-100.00,SW,230,40.0,55.0,52,0.00,,,-99.99,,2013-02-05 01:51:00,
2013-02-04 19:01:00,31.0,15.0,-100.00,SW,224,39.0,57.0,52,0.00,,,-99.99,,2013-02-05 02:01:00,
2013-02-04 19:11:00,31.0,15.0,-100.00,SW,230,35.0,56.0,53,0.00,,,-99.99,,2013-02-05 02:11:00,
2013-02-04 19:21:00,31.0,15.0,-100.00,SW,229,34.0,54.0,52,0.00,,,-99.99,,2013-02-05 02:21:00,
2013-02-04 19:32:00,31.0,15.0,-100.00,SW,229,32.0,48.0,53,0.00,,,-99.99,,2013-02-05 02:32:00,
2013-02-04 19:41:00,31.0,15.0,-100.00,SW,220,26.0,47.0,53,0.00,,,-99.99,,2013-02-05 02:41:00,
2013-02-04 19:52:00,30.0,15.0,-100.00,SSW,193,14.0,34.0,53,0.00,,,-99.99,,2013-02-05 02:52:00,
2013-02-04 20:02:00,31.0,15.0,-100.00,South,179,17.0,34.0,52,0.00,,,-99.99,,2013-02-05 03:02:00,
2013-02-04 20:11:00,32.0,15.0,-100.00,SSE,164,21.0,39.0,50,0.00,,,-99.99,,2013-02-05 03:11:00,
2013-02-04 20:21:00,32.0,15.0,-100.00,SSW,195,17.0,36.0,50,0.00,,,-99.99,,2013-02-05 03:21:00,
2013-02-04 20:32:00,32.0,15.0,-100.00,SW,217,21.0,40.0,50,0.00,,,-99.99,,2013-02-05 03:32:00,
2013-02-04 20:42:00,32.0,15.0,-100.00,SW,217,21.0,41.0,50,0.00,,,-99.99,,2013-02-05 03:42:00,
2013-02-04 20:51:00,32.0,15.0,-100.00,SW,232,17.0,29.0,51,0.00,,,-99.99,,2013-02-05 03:51:00,
2013-02-04 21:01:00,31.0,15.0,-100.00,SW,236,17.0,26.0,52,0.00,,,-99.99,,2013-02-05 04:01:00,
2013-02-04 21:11:00,31.0,15.0,-100.00,SW,229,16.0,30.0,51,0.00,,,-99.99,,2013-02-05 04:11:00,
2013-02-04 21:21:00,31.0,16.0,-100.00,SW,227,22.0,37.0,53,0.00,,,-99.99,,2013-02-05 04:21:00,
2013-02-04 21:32:00,31.0,16.0,-100.00,SW,224,24.0,40.0,53,0.00,,,-99.99,,2013-02-05 04:32:00,
2013-02-04 21:42:00,31.0,16.0,-100.00,SW,227,20.0,32.0,54,0.00,,,-99.99,,2013-02-05 04:42:00,
2013-02-04 21:52:00,30.0,16.0,-100.00,SW,229,21.0,35.0,54,0.00,,,-99.99,,2013-02-05 04:52:00,
2013-02-04 22:02:00,31.0,16.0,-100.00,SW,236,21.0,38.0,54,0.00,,,-99.99,,2013-02-05 05:02:00,
2013-02-04 22:11:00,30.0,16.0,-100.00,SW,233,21.0,38.0,54,0.00,,,-99.99,,2013-02-05 05:11:00,
2013-02-04 22:21:00,30.0,16.0,-100.00,SW,229,21.0,33.0,54,0.00,,,-99.99,,2013-02-05 05:21:00,
2013-02-04 22:32:00,31.0,15.0,-100.00,SW,223,19.0,37.0,52,0.00,,,-99.99,,2013-02-05 05:32:00,
2013-02-04 22:42:00,31.0,16.0,-100.00,South,182,12.0,30.0,53,0.00,,,-99.99,,2013-02-05 05:42:00,
2013-02-04 22:52:00,31.0,15.0,-100.00,SSW,200,15.0,33.0,53,0.00,,,-99.99,,2013-02-05 05:52:00,
2013-02-04 23:01:00,31.0,15.0,-100.00,SW,226,31.0,47.0,52,0.00,,,-99.99,,2013-02-05 06:01:00,
2013-02-04 23:11:00,31.0,15.0,-100.00,SW,223,32.0,47.0,52,0.00,,,-99.99,,2013-02-05 06:11:00,
2013-02-04 23:21:00,31.0,15.0,-100.00,SW,224,34.0,50.0,51,0.00,,,-99.99,,2013-02-05 06:21:00,
2013-02-04 23:32:00,30.0,15.0,-100.00,SW,224,35.0,48.0,52,0.00,,,-99.99,,2013-02-05 06:32:00,
2013-02-04 23:42:00,31.0,15.0,-100.00,SW,224,35.0,54.0,52,0.00,,,-99.99,,2013-02-05 06:42:00,
2013-02-04 23:51:00,31.0,15.0,-100.00,SW,223,32.0,49.0,52,0.00,,,-99.99,,2013-02-05 06:51:00,